x

Halibut Bank (46146) Wave Buoy

1:00pm - Thu 27th Nov 2014 All times are PST. -8 hours from GMT.

  • Sig Wave height 2.3ft
  • Peak Period 4s
  • Wind
    13mph, 20mph gusts
  • Sea Temp 49°f
  • Air Temp 53°f
  • Sea Pressure 1002.6mb
  • Halibut Bank
  • Halibut Bank

More Historic Weather Station data

Upgrade to MSW Pro to gain access to the past 30 days of data for over 8000 Wavebouys and Weather Stations around the globe.

Join Pro

Comparision Forecast

View Surf forecast
   
Thu 11/27 1:00pm 2.5ft 4s 13 20 mph 1002.6mb 49f 53f
12:00pm 3ft 4s 18 22 mph 1003.3mb 49f 51f
11:00am 3.5ft 4s 18 25 mph 1003.8mb 49f 52f
10:00am 3.5ft 5s 22 25 mph 1004.4mb 49f 52f
9:00am 3.5ft 5s 22 29 mph 1004.5mb 49f 51f
8:00am 3ft 4s 22 25 mph 1005.3mb 49f 51f
7:00am 3ft 4s 22 29 mph 1005.3mb 49f 51f
6:00am 2ft 3s 25 31 mph 1004.8mb 49f 52f
5:00am 1.6ft 3s 16 25 mph 1005.7mb 49f 52f
4:00am 1.6ft 3s 18 25 mph 1005.8mb 49f 51f
3:00am 2ft 4s 13 20 mph 1006.3mb 49f 52f
2:00am 2ft 4s 18 22 mph 1006.4mb 49f 52f
1:00am 2.5ft 4s 18 20 mph 1006.2mb 49f 52f
12:00am 2.5ft 3s 20 25 mph 1006.2mb 49f 53f
Wed 11/26 11:00pm 2.5ft 4s 22 25 mph 1006mb 49f 53f
10:00pm 2ft 3s 22 27 mph 1006.3mb 48f 52f
9:00pm 2ft 3s 20 25 mph 1006.7mb 48f 50f
8:00pm 1.6ft 3s 20 25 mph 1008.2mb 48f 51f
7:00pm 1.6ft 3s 20 25 mph 1008.9mb 48f 51f
6:00pm 1.3ft 3s 18 22 mph 1010mb 48f 51f
5:00pm 1.3ft 3s 20 25 mph 1010.6mb 48f 51f
4:00pm 1.3ft 3s 18 22 mph 1012.6mb 48f 50f
3:00pm 1ft 2s 16 18 mph 1013.7mb 47f 49f
2:00pm 1.3ft 3s 16 20 mph 1013.8mb 47f 49f
1:00pm 1ft 3s 13 18 mph 1015.2mb 47f 48f
12:00pm 1ft 3s 11 13 mph 1016.1mb 47f 48f
11:00am 1ft 3s 13 18 mph 1016.5mb 47f 46f
10:00am 1ft 3s 9 11 mph 1017.2mb 47f 47f
9:00am 1ft 3s 13 16 mph 1017.1mb 47f 46f
8:00am 1ft 2s 13 16 mph 1017.6mb 47f 45f
7:00am 0.7ft 3s 9
mph
1018.2mb 47f 44f
6:00am 0.7ft 2s 9 11 mph 1018.6mb 47f 44f
5:00am 0.7ft 3s 11
mph
1019.1mb 47f 44f
4:00am 0.7ft 2s 11 13 mph 1019.2mb 47f 44f
3:00am 0.7ft 2s 9 11 mph 1019.9mb 47f 43f
2:00am 0.7ft 2s 9 11 mph 1020.3mb 47f 43f
1:00am 0.7ft 3s 9
mph
1020.7mb 48f 43f
12:00am 0.7ft 2s 2 4 mph 1021.3mb 48f 43f
Tue 11/25 11:00pm 0.7ft 2s 4 7 mph 1021mb 48f 43f
10:00pm 0.7ft 2s 11 13 mph 1020.8mb 48f 43f
9:00pm 0.7ft 3s 11 13 mph 1020.9mb 48f 43f
8:00pm 0.7ft 2s 7 9 mph 1020.9mb 48f 44f
7:00pm 0.7ft 2s 11 13 mph 1020.8mb 48f 44f
6:00pm 0.7ft 2s 11 13 mph 1021.6mb 48f 44f
5:00pm 0.3ft 5s 9 11 mph 1021.9mb 48f 45f
4:00pm 0.3ft 3s 9 11 mph 1022.1mb 48f 45f
3:00pm 0.7ft 3s 4
mph
1022.8mb 47f 45f
2:00pm 0.7ft 3s 4
mph
1023.1mb 47f 46f
1:00pm 0.7ft 3s 4
mph
1023.5mb 47f 46f
12:00pm 1ft 3s 7 9 mph 1023.6mb 47f 46f
11:00am 1ft 3s 4 7 mph 1024mb 47f 45f
10:00am 1.3ft 4s 7 9 mph 1024mb 47f 46f
9:00am 1.3ft 4s 2 4 mph 1023.4mb 47f 46f
8:00am 1.3ft 4s 9 11 mph 1023mb 47f 46f
7:00am 1ft 3s 11 13 mph 1022.8mb 47f 46f
6:00am 1ft 3s 11 13 mph 1022.3mb 48f 47f
5:00am 1ft 3s 11 16 mph 1021.8mb 48f 47f
4:00am 0.7ft 3s 11 13 mph 1021.6mb 48f 47f
3:00am 1ft 3s 11 13 mph 1021.3mb 48f 46f
2:00am 1ft 3s 11 16 mph 1021.4mb 48f 46f
1:00am 1ft 4s 4 7 mph 1020.8mb 48f 46f
12:00am 1ft 4s 9 11 mph 1020.9mb 48f 46f
Mon 11/24 11:00pm 1ft 3s 9 11 mph 1020mb 49f 46f
10:00pm 1.3ft 3s 13 16 mph 1019mb 49f 46f
9:00pm 1.6ft 3s 18 22 mph 1018.4mb 49f 45f
8:00pm 1.6ft 3s 11 16 mph 1018mb 50f 47f
7:00pm 2ft 3s 18 22 mph 1017.1mb 49f 46f
6:00pm 2ft 3s 20 25 mph 1017.7mb 50f 46f
5:00pm 2.5ft 4s 22 27 mph 1018mb 49f 47f
4:00pm 2.5ft 4s 25 29 mph 1018.1mb 49f 47f
3:00pm 2.5ft 4s 22 25 mph 1019.6mb 49f 47f
2:00pm 2.5ft 4s 25 31 mph 1020.4mb 49f 47f
1:00pm 2.5ft 4s 25 27 mph 1021.8mb 49f 47f
12:00pm 1.6ft 3s 25 29 mph 1022.2mb 49f 47f
11:00am 1.6ft 3s 22 27 mph 1023mb 48f 47f
10:00am 1.3ft 3s 18 22 mph 1024mb 48f 47f
9:00am 1.6ft 3s 18 22 mph 1025mb 48f 47f
8:00am 1.6ft 3s 18 22 mph 1024.8mb 48f 46f
7:00am 1.6ft 3s 20 22 mph 1024.9mb 48f 46f
6:00am 1.6ft 3s 20 22 mph 1025.8mb 48f 47f
5:00am 1.6ft 3s 18 22 mph 1025.9mb 48f 47f
4:00am 1ft 2s 18 20 mph 1026mb 48f 47f
3:00am 0.7ft 2s 16 18 mph 1026.9mb 48f 46f
2:00am 1ft 2s 11 13 mph 1027.6mb 48f 46f
1:00am 1ft 2s 16 18 mph 1026.6mb 48f 46f
12:00am 0.3ft 3s 13 16 mph 1026.4mb 48f 46f
Sun 11/23 11:00pm 0.7ft 3s 7
mph
1026.5mb 48f 46f